Time;durP1;ratioP1;P1;durP2;ratioP2;P2;SDS_P1;SDS_P2;PMS_P1;PMS_P2;Temp;Humidity;BMP_temperature;BMP_pressure;BME280_temperature;BME280_humidity;BME280_pressure;Samples;Min_cycle;Max_cycle;Signal;HPM_P1;HPM_P2
2024/01/05 00:02:19;;;;;;;10.17;2.33;;;;;;;;;;5021020;28;20201;-61
2024/01/05 00:04:46;;;;;;;8.77;2.27;;;;;;;;;;5020103;28;20209;-62
2024/01/05 00:07:13;;;;;;;8.37;2.20;;;;;;;;;;5023645;28;20204;-62
2024/01/05 00:09:42;;;;;;;7.70;2.30;;;;;;;;;;5017959;28;20205;-61
2024/01/05 00:12:09;;;;;;;7.87;2.37;;;;;;;;;;5020897;28;20207;-62
2024/01/05 00:14:37;;;;;;;7.80;2.37;;;;;;;;;;5025795;28;20204;-62
2024/01/05 00:17:05;;;;;;;6.00;2.03;;;;;;;;;;5020808;28;20236;-62
2024/01/05 00:19:32;;;;;;;7.00;2.50;;;;;;;;;;5022381;28;20208;-61
2024/01/05 00:21:59;;;;;;;8.70;2.50;;;;;;;;;;5027125;28;20215;-62
2024/01/05 00:24:26;;;;;;;7.10;2.60;;;;;;;;;;5026208;28;20204;-62
2024/01/05 00:26:55;;;;;;;11.30;2.20;;;;;;;;;;5021940;28;20201;-63
2024/01/05 00:29:22;;;;;;;6.50;2.03;;;;;;;;;;5024665;28;20203;-62
2024/01/05 00:31:49;;;;;;;8.23;2.07;;;;;;;;;;5025851;28;20275;-61
2024/01/05 00:34:16;;;;;;;6.33;2.10;;;;;;;;;;5021778;28;20207;-61
2024/01/05 00:36:43;;;;;;;6.90;2.37;;;;;;;;;;5026708;28;20224;-63
2024/01/05 00:39:10;;;;;;;7.37;2.00;;;;;;;;;;5024533;28;20203;-62
2024/01/05 00:41:37;;;;;;;6.37;2.13;;;;;;;;;;5027658;28;20208;-61
2024/01/05 00:44:06;;;;;;;7.07;1.90;;;;;;;;;;5023175;28;20211;-61
2024/01/05 00:46:33;;;;;;;10.37;1.87;;;;;;;;;;5023036;28;20207;-62
2024/01/05 00:49:00;;;;;;;7.97;2.27;;;;;;;;;;5026732;28;20219;-61
2024/01/05 00:51:27;;;;;;;6.00;2.33;;;;;;;;;;5024410;28;20204;-62
2024/01/05 00:53:55;;;;;;;5.80;2.20;;;;;;;;;;5021698;28;20205;-61
2024/01/05 00:56:22;;;;;;;7.03;2.03;;;;;;;;;;5025837;28;20216;-61
2024/01/05 00:58:50;;;;;;;5.47;2.03;;;;;;;;;;5026798;28;20208;-61
2024/01/05 01:01:18;;;;;;;7.87;1.93;;;;;;;;;;5023528;28;20220;-62
2024/01/05 01:03:45;;;;;;;5.63;1.80;;;;;;;;;;5023789;28;20212;-63
2024/01/05 01:06:12;;;;;;;6.03;2.17;;;;;;;;;;5022960;28;20197;-62
2024/01/05 01:08:39;;;;;;;5.80;1.80;;;;;;;;;;5021017;28;20392;-62
2024/01/05 01:11:06;;;;;;;4.80;1.93;;;;;;;;;;5024160;28;20215;-62
2024/01/05 01:13:33;;;;;;;7.10;2.20;;;;;;;;;;5028479;28;20200;-62
2024/01/05 01:16:01;;;;;;;6.73;2.40;;;;;;;;;;5026815;28;20216;-62
2024/01/05 01:18:29;;;;;;;6.13;2.00;;;;;;;;;;5027573;28;20203;-62
2024/01/05 01:20:56;;;;;;;7.63;2.17;;;;;;;;;;5027524;28;20457;-61
2024/01/05 01:23:23;;;;;;;6.53;2.10;;;;;;;;;;5026549;28;20212;-62
2024/01/05 01:25:50;;;;;;;6.27;2.00;;;;;;;;;;5022749;28;20215;-67
2024/01/05 01:28:17;;;;;;;3.77;1.73;;;;;;;;;;5023329;28;20207;-67
2024/01/05 01:30:45;;;;;;;6.03;2.37;;;;;;;;;;5023366;28;20200;-67
2024/01/05 01:33:12;;;;;;;9.17;2.27;;;;;;;;;;5024931;28;20212;-66
2024/01/05 01:35:40;;;;;;;3.77;1.90;;;;;;;;;;5026695;28;20204;-67
2024/01/05 01:38:08;;;;;;;7.03;2.37;;;;;;;;;;5021708;28;20244;-66
2024/01/05 01:40:35;;;;;;;6.00;1.70;;;;;;;;;;5021593;28;20295;-67
2024/01/05 01:43:03;;;;;;;5.77;2.30;;;;;;;;;;5029097;28;20196;-66
2024/01/05 01:45:30;;;;;;;6.83;2.10;;;;;;;;;;5029254;28;20227;-65
2024/01/05 01:47:58;;;;;;;6.50;2.50;;;;;;;;;;5022490;28;20228;-67
2024/01/05 01:50:25;;;;;;;5.13;1.97;;;;;;;;;;5021558;28;20198;-67
2024/01/05 01:52:54;;;;;;;10.80;2.50;;;;;;;;;;5030304;28;20204;-66
2024/01/05 01:55:21;;;;;;;8.30;2.50;;;;;;;;;;5027444;28;20201;-67
2024/01/05 01:57:48;;;;;;;6.43;2.00;;;;;;;;;;5025098;28;20228;-67
2024/01/05 02:00:15;;;;;;;6.77;2.20;;;;;;;;;;5027746;28;20219;-66
2024/01/05 02:02:42;;;;;;;3.93;1.73;;;;;;;;;;5024464;28;20201;-66
2024/01/05 02:05:10;;;;;;;5.40;2.00;;;;;;;;;;5022261;28;20214;-68
2024/01/05 02:07:37;;;;;;;5.50;2.23;;;;;;;;;;5021498;28;20193;-67
2024/01/05 02:10:06;;;;;;;8.10;2.90;;;;;;;;;;5021092;28;20200;-66
2024/01/05 02:12:33;;;;;;;6.17;1.93;;;;;;;;;;5027033;28;20197;-67
2024/01/05 02:15:00;;;;;;;6.37;2.23;;;;;;;;;;5023533;28;20200;-66
2024/01/05 02:17:30;;;;;;;8.80;2.30;;;;;;;;;;5028596;28;20228;-66
2024/01/05 02:19:58;;;;;;;7.80;2.30;;;;;;;;;;5022323;28;20227;-67
2024/01/05 02:22:26;;;;;;;7.90;2.47;;;;;;;;;;5027051;28;20200;-66
2024/01/05 02:24:55;;;;;;;5.20;2.53;;;;;;;;;;5023096;28;20200;-67
2024/01/05 02:27:22;;;;;;;4.60;2.03;;;;;;;;;;5025086;28;20403;-66
2024/01/05 02:29:49;;;;;;;6.53;2.07;;;;;;;;;;5022555;28;20201;-66
2024/01/05 02:32:17;;;;;;;6.50;2.27;;;;;;;;;;5023885;28;20211;-67
2024/01/05 02:34:44;;;;;;;7.37;2.63;;;;;;;;;;5019003;28;20212;-67
2024/01/05 02:37:11;;;;;;;9.17;2.43;;;;;;;;;;5022563;28;20232;-66
2024/01/05 02:39:38;;;;;;;5.73;2.00;;;;;;;;;;5021021;28;20208;-66
2024/01/05 02:42:07;;;;;;;6.67;2.30;;;;;;;;;;5020071;28;20200;-66
2024/01/05 02:44:34;;;;;;;6.17;2.50;;;;;;;;;;5029244;28;20219;-65
2024/01/05 02:47:01;;;;;;;7.77;2.20;;;;;;;;;;5021167;28;20200;-66
2024/01/05 02:49:28;;;;;;;5.43;2.10;;;;;;;;;;5025024;28;20207;-66
2024/01/05 02:51:55;;;;;;;8.67;2.50;;;;;;;;;;5021553;28;20204;-66
2024/01/05 02:54:22;;;;;;;7.33;2.53;;;;;;;;;;5022296;28;20205;-67
2024/01/05 02:56:50;;;;;;;7.37;2.10;;;;;;;;;;5021953;28;20219;-67
2024/01/05 02:59:19;;;;;;;7.47;2.23;;;;;;;;;;5021436;28;20215;-66
2024/01/05 03:01:49;;;;;;;5.43;2.13;;;;;;;;;;5021358;28;20208;-67
2024/01/05 03:04:16;;;;;;;8.03;2.20;;;;;;;;;;5026816;28;20200;-66
2024/01/05 03:06:43;;;;;;;5.00;1.70;;;;;;;;;;5019578;28;20282;-66
2024/01/05 03:09:10;;;;;;;5.87;2.30;;;;;;;;;;5024690;28;20200;-66
2024/01/05 03:11:38;;;;;;;6.20;2.40;;;;;;;;;;5016031;28;20213;-66
2024/01/05 03:14:05;;;;;;;4.47;1.80;;;;;;;;;;5018784;28;20201;-66
2024/01/05 03:16:33;;;;;;;6.27;2.27;;;;;;;;;;5027246;28;20204;-67
2024/01/05 03:18:59;;;;;;;5.47;2.10;;;;;;;;;;5030570;28;20393;-67
2024/01/05 03:21:27;;;;;;;7.13;2.00;;;;;;;;;;5018485;28;20414;-66
2024/01/05 03:23:54;;;;;;;6.23;2.07;;;;;;;;;;5018049;28;20204;-66
2024/01/05 03:26:21;;;;;;;6.60;2.03;;;;;;;;;;5024175;28;20196;-66
2024/01/05 03:28:48;;;;;;;6.87;2.57;;;;;;;;;;5024638;28;20211;-68
2024/01/05 03:31:15;;;;;;;7.23;2.20;;;;;;;;;;5024812;28;20200;-67
2024/01/05 03:33:44;;;;;;;4.67;2.10;;;;;;;;;;5018678;28;20211;-67
2024/01/05 03:36:11;;;;;;;5.97;2.10;;;;;;;;;;5022094;28;20204;-66
2024/01/05 03:38:39;;;;;;;5.33;2.27;;;;;;;;;;5023668;28;20232;-67
2024/01/05 03:41:06;;;;;;;5.47;2.20;;;;;;;;;;5022364;28;20204;-67
2024/01/05 03:43:33;;;;;;;6.67;2.37;;;;;;;;;;5019620;28;20197;-67
2024/01/05 03:46:00;;;;;;;11.97;6.03;;;;;;;;;;5022530;28;20208;-68
2024/01/05 03:48:27;;;;;;;5.70;2.07;;;;;;;;;;5019373;28;20203;-68
2024/01/05 03:50:56;;;;;;;7.70;2.50;;;;;;;;;;5021315;28;20193;-67
2024/01/05 03:53:23;;;;;;;4.23;1.80;;;;;;;;;;5016281;28;20216;-67
2024/01/05 03:55:50;;;;;;;5.43;2.10;;;;;;;;;;5028172;28;20287;-68
2024/01/05 03:58:17;;;;;;;6.87;2.27;;;;;;;;;;5022802;28;20218;-67
2024/01/05 04:00:44;;;;;;;6.60;2.23;;;;;;;;;;5024057;28;20207;-66
2024/01/05 04:03:11;;;;;;;5.50;2.10;;;;;;;;;;5025516;28;20201;-66
2024/01/05 04:05:39;;;;;;;6.03;2.10;;;;;;;;;;5024860;28;20208;-66
2024/01/05 04:08:07;;;;;;;8.17;1.80;;;;;;;;;;5024546;28;20482;-66
2024/01/05 04:10:35;;;;;;;5.90;2.07;;;;;;;;;;5023140;28;20212;-67
2024/01/05 04:13:03;;;;;;;6.03;1.90;;;;;;;;;;5026492;28;20196;-67
2024/01/05 04:15:30;;;;;;;7.97;2.00;;;;;;;;;;5025331;28;20208;-66
2024/01/05 04:17:57;;;;;;;7.73;2.00;;;;;;;;;;5022209;28;20219;-67
2024/01/05 04:20:24;;;;;;;5.90;1.80;;;;;;;;;;5024433;28;20204;-67
2024/01/05 04:22:52;;;;;;;6.20;1.77;;;;;;;;;;5026804;28;20223;-68
2024/01/05 04:25:20;;;;;;;3.93;2.00;;;;;;;;;;5024342;28;20204;-67
2024/01/05 04:27:47;;;;;;;7.57;1.73;;;;;;;;;;5026963;28;20215;-67
2024/01/05 04:30:15;;;;;;;10.20;2.67;;;;;;;;;;5027313;28;20211;-67
2024/01/05 04:32:43;;;;;;;5.60;1.80;;;;;;;;;;5020965;28;20200;-67
2024/01/05 04:35:10;;;;;;;8.30;1.87;;;;;;;;;;5027865;28;20209;-67
2024/01/05 04:37:37;;;;;;;6.80;2.00;;;;;;;;;;5025937;28;20233;-68
2024/01/05 04:40:05;;;;;;;8.63;1.87;;;;;;;;;;5025875;28;20207;-66
2024/01/05 04:42:34;;;;;;;5.30;1.90;;;;;;;;;;5027352;28;20211;-67
2024/01/05 04:45:02;;;;;;;6.90;2.10;;;;;;;;;;5028604;28;20287;-67
2024/01/05 04:47:31;;;;;;;4.67;1.90;;;;;;;;;;5026581;28;20207;-68
2024/01/05 04:49:58;;;;;;;6.47;2.07;;;;;;;;;;5024781;28;20255;-67
2024/01/05 04:52:25;;;;;;;8.40;2.00;;;;;;;;;;5023891;28;20220;-66
2024/01/05 04:54:52;;;;;;;6.00;2.13;;;;;;;;;;5027982;28;20226;-61
2024/01/05 04:57:19;;;;;;;5.97;1.70;;;;;;;;;;5029005;28;20226;-61
2024/01/05 04:59:48;;;;;;;6.13;2.13;;;;;;;;;;5025416;28;20221;-61
2024/01/05 05:02:15;;;;;;;10.60;2.10;;;;;;;;;;5027302;28;20207;-62
2024/01/05 05:04:42;;;;;;;9.20;2.10;;;;;;;;;;5022591;28;20200;-61
2024/01/05 05:07:09;;;;;;;4.70;1.77;;;;;;;;;;5025084;28;20207;-61
2024/01/05 05:09:36;;;;;;;6.37;2.00;;;;;;;;;;5023198;28;20212;-61
2024/01/05 05:12:04;;;;;;;4.17;1.63;;;;;;;;;;5021858;28;20209;-62
2024/01/05 05:14:31;;;;;;;6.37;2.27;;;;;;;;;;5023709;28;20207;-61
2024/01/05 05:16:59;;;;;;;5.57;1.90;;;;;;;;;;5024188;28;20400;-62
2024/01/05 05:19:26;;;;;;;4.27;1.63;;;;;;;;;;5027762;28;20208;-61
2024/01/05 05:21:54;;;;;;;4.77;1.53;;;;;;;;;;5027176;28;20212;-62
2024/01/05 05:24:21;;;;;;;3.77;1.80;;;;;;;;;;5024773;28;20224;-62
2024/01/05 05:26:48;;;;;;;6.37;1.37;;;;;;;;;;5021862;28;20209;-63
2024/01/05 05:29:15;;;;;;;5.77;1.73;;;;;;;;;;5026740;28;20514;-61
2024/01/05 05:31:42;;;;;;;3.93;1.67;;;;;;;;;;5018934;28;20205;-62
2024/01/05 05:34:10;;;;;;;5.50;1.70;;;;;;;;;;5017467;28;20205;-61
2024/01/05 05:36:37;;;;;;;5.30;1.77;;;;;;;;;;5022841;28;20214;-63
2024/01/05 05:39:05;;;;;;;4.13;1.57;;;;;;;;;;5023309;28;20223;-62
2024/01/05 05:41:32;;;;;;;6.57;1.40;;;;;;;;;;5020144;28;20204;-62
2024/01/05 05:43:59;;;;;;;2.90;1.53;;;;;;;;;;5024432;28;20287;-62
2024/01/05 05:46:26;;;;;;;4.00;1.53;;;;;;;;;;5031266;28;20215;-61
2024/01/05 05:48:53;;;;;;;6.17;1.73;;;;;;;;;;5026981;28;20204;-61
2024/01/05 05:51:22;;;;;;;5.10;1.40;;;;;;;;;;5023533;28;20304;-63
2024/01/05 05:53:49;;;;;;;4.00;1.60;;;;;;;;;;5026948;28;20203;-62
2024/01/05 05:56:16;;;;;;;6.90;1.83;;;;;;;;;;5025486;28;20214;-62
2024/01/05 05:58:44;;;;;;;4.53;1.57;;;;;;;;;;5027403;28;20232;-63
2024/01/05 06:01:13;;;;;;;5.27;1.73;;;;;;;;;;5026910;28;20271;-62
2024/01/05 06:03:40;;;;;;;5.77;1.90;;;;;;;;;;5025396;28;20341;-62
2024/01/05 06:06:16;;;;;;;5.20;1.60;;;;;;;;;;5021370;28;20205;-63
2024/01/05 06:08:45;;;;;;;3.93;1.50;;;;;;;;;;5018795;28;20207;-62
2024/01/05 06:11:13;;;;;;;4.33;1.43;;;;;;;;;;5024936;28;20216;-61
2024/01/05 06:13:40;;;;;;;4.30;1.73;;;;;;;;;;5023868;28;20212;-62
2024/01/05 06:16:08;;;;;;;3.10;1.30;;;;;;;;;;5024020;28;20207;-62
2024/01/05 06:18:35;;;;;;;5.50;1.70;;;;;;;;;;5019873;28;20255;-62
2024/01/05 06:21:02;;;;;;;2.77;1.27;;;;;;;;;;5021848;28;20212;-61
2024/01/05 06:23:29;;;;;;;7.17;1.90;;;;;;;;;;5021717;28;20215;-61
2024/01/05 06:25:58;;;;;;;6.60;1.50;;;;;;;;;;5021098;28;20215;-62
2024/01/05 06:28:25;;;;;;;4.80;1.60;;;;;;;;;;5027211;28;20200;-61
2024/01/05 06:30:52;;;;;;;6.40;1.93;;;;;;;;;;5023680;28;20208;-62
2024/01/05 06:33:19;;;;;;;3.73;1.70;;;;;;;;;;5025366;28;20299;-61
2024/01/05 06:35:46;;;;;;;5.10;1.43;;;;;;;;;;5027219;28;20204;-62
2024/01/05 06:38:13;;;;;;;6.70;1.70;;;;;;;;;;5023388;28;20282;-62
2024/01/05 06:40:40;;;;;;;4.40;1.87;;;;;;;;;;5026374;28;20208;-62
2024/01/05 06:43:09;;;;;;;4.67;1.50;;;;;;;;;;5024930;28;20284;-61
2024/01/05 06:45:37;;;;;;;4.60;1.70;;;;;;;;;;5020192;28;20213;-61
2024/01/05 06:48:04;;;;;;;4.80;1.90;;;;;;;;;;5019047;28;20197;-62
2024/01/05 06:50:31;;;;;;;7.57;1.87;;;;;;;;;;5022546;28;20210;-61
2024/01/05 06:52:58;;;;;;;5.10;1.50;;;;;;;;;;5021183;28;20196;-61
2024/01/05 06:55:25;;;;;;;5.27;1.57;;;;;;;;;;5025767;28;20208;-63
2024/01/05 06:57:52;;;;;;;3.80;1.80;;;;;;;;;;5022443;28;20216;-61
2024/01/05 07:00:21;;;;;;;6.17;1.53;;;;;;;;;;5023127;28;20530;-61
2024/01/05 07:02:48;;;;;;;4.67;1.57;;;;;;;;;;5020207;28;20216;-61
2024/01/05 07:05:15;;;;;;;6.60;1.63;;;;;;;;;;5017565;28;20215;-62
2024/01/05 07:07:42;;;;;;;4.30;1.20;;;;;;;;;;5024659;28;20204;-61
2024/01/05 07:10:10;;;;;;;3.47;1.83;;;;;;;;;;5022448;28;20272;-62
2024/01/05 07:12:38;;;;;;;2.87;1.33;;;;;;;;;;5026037;28;20204;-62
2024/01/05 07:15:06;;;;;;;4.93;1.50;;;;;;;;;;5022377;28;20204;-66
2024/01/05 07:17:34;;;;;;;5.03;1.70;;;;;;;;;;5021180;28;20204;-67
2024/01/05 07:20:02;;;;;;;5.67;1.40;;;;;;;;;;5022625;28;20259;-67
2024/01/05 07:22:29;;;;;;;5.50;1.60;;;;;;;;;;5026041;28;20208;-66
2024/01/05 07:24:57;;;;;;;4.63;1.80;;;;;;;;;;5016816;28;20212;-66
2024/01/05 07:27:24;;;;;;;5.37;2.10;;;;;;;;;;5022378;28;20200;-66
2024/01/05 07:29:51;;;;;;;5.13;1.77;;;;;;;;;;5025990;28;20488;-66
2024/01/05 07:32:19;;;;;;;4.77;2.10;;;;;;;;;;5025478;28;20197;-67
2024/01/05 07:34:48;;;;;;;5.87;1.80;;;;;;;;;;5019789;28;20211;-67
2024/01/05 07:37:17;;;;;;;6.23;1.90;;;;;;;;;;5024675;28;20232;-66
2024/01/05 07:39:44;;;;;;;4.20;1.47;;;;;;;;;;5021911;28;20231;-65
2024/01/05 07:42:11;;;;;;;6.47;1.67;;;;;;;;;;5023989;28;20200;-66
2024/01/05 07:44:38;;;;;;;5.93;2.03;;;;;;;;;;5020607;28;20267;-67
2024/01/05 07:47:06;;;;;;;5.77;2.30;;;;;;;;;;5020465;28;20196;-66
2024/01/05 07:49:34;;;;;;;8.80;2.77;;;;;;;;;;5021459;28;20211;-66
2024/01/05 07:52:02;;;;;;;14.60;5.00;;;;;;;;;;5023775;28;20197;-66
2024/01/05 07:54:29;;;;;;;5.30;1.70;;;;;;;;;;5021404;28;20266;-65
2024/01/05 07:56:56;;;;;;;4.90;1.77;;;;;;;;;;5021914;28;20207;-66
2024/01/05 07:59:23;;;;;;;8.80;2.53;;;;;;;;;;5019216;28;20276;-66
2024/01/05 08:01:52;;;;;;;7.23;2.20;;;;;;;;;;5020885;28;20201;-66
2024/01/05 08:04:20;;;;;;;9.03;2.30;;;;;;;;;;5022542;28;20223;-66
2024/01/05 08:06:48;;;;;;;4.23;2.30;;;;;;;;;;5021293;28;20205;-65
2024/01/05 08:09:17;;;;;;;6.40;2.90;;;;;;;;;;5023106;28;20274;-66
2024/01/05 08:11:44;;;;;;;6.27;2.07;;;;;;;;;;5020114;28;20204;-65
2024/01/05 08:14:11;;;;;;;9.07;2.30;;;;;;;;;;5023767;28;20200;-66
2024/01/05 08:16:39;;;;;;;6.50;1.80;;;;;;;;;;5018567;28;20205;-66
2024/01/05 08:19:06;;;;;;;4.77;1.97;;;;;;;;;;5018906;28;20221;-66
2024/01/05 08:21:33;;;;;;;4.27;1.60;;;;;;;;;;5020113;28;20208;-65
2024/01/05 08:24:00;;;;;;;5.07;1.53;;;;;;;;;;5017178;28;20224;-66
2024/01/05 08:26:29;;;;;;;5.47;1.70;;;;;;;;;;5021605;28;20231;-61
2024/01/05 08:28:56;;;;;;;3.33;1.70;;;;;;;;;;5021078;28;20205;-61
2024/01/05 08:31:23;;;;;;;6.07;1.80;;;;;;;;;;5019323;28;20212;-61
2024/01/05 08:33:50;;;;;;;4.80;1.67;;;;;;;;;;5021090;28;20258;-62
2024/01/05 08:36:18;;;;;;;6.23;1.77;;;;;;;;;;5021651;28;20200;-61
2024/01/05 08:38:45;;;;;;;2.17;1.20;;;;;;;;;;5022593;28;20237;-63
2024/01/05 08:41:12;;;;;;;5.13;1.53;;;;;;;;;;5006260;28;20216;-61
2024/01/05 08:43:43;;;;;;;3.53;1.67;;;;;;;;;;5004257;28;20213;-62
2024/01/05 08:46:11;;;;;;;4.93;1.40;;;;;;;;;;5008558;28;20228;-61
2024/01/05 08:48:39;;;;;;;5.60;1.33;;;;;;;;;;5007964;28;20235;-62
2024/01/05 08:51:06;;;;;;;3.70;1.30;;;;;;;;;;5008433;28;20242;-61
2024/01/05 08:53:34;;;;;;;4.70;1.40;;;;;;;;;;5010336;28;20223;-62
2024/01/05 08:56:01;;;;;;;2.57;1.30;;;;;;;;;;5011089;28;20204;-63
2024/01/05 08:58:28;;;;;;;3.57;1.17;;;;;;;;;;5008734;28;20212;-61
2024/01/05 09:00:56;;;;;;;3.07;1.27;;;;;;;;;;5008512;28;20209;-63
2024/01/05 09:03:23;;;;;;;3.83;1.70;;;;;;;;;;5009853;28;20212;-63
2024/01/05 09:05:51;;;;;;;3.77;1.30;;;;;;;;;;5011393;28;20303;-62
2024/01/05 09:08:19;;;;;;;4.27;1.40;;;;;;;;;;5006121;28;20212;-62
2024/01/05 09:10:46;;;;;;;3.17;1.40;;;;;;;;;;5008873;28;20212;-63
2024/01/05 09:13:13;;;;;;;4.30;1.20;;;;;;;;;;5011866;28;20211;-64
2024/01/05 09:15:40;;;;;;;3.83;1.37;;;;;;;;;;5012725;28;20220;-61
2024/01/05 09:18:08;;;;;;;2.77;1.03;;;;;;;;;;5018756;28;20208;-62
2024/01/05 09:20:35;;;;;;;3.33;1.00;;;;;;;;;;5013370;28;20220;-61
2024/01/05 09:23:03;;;;;;;3.80;1.30;;;;;;;;;;5015379;28;20215;-61
2024/01/05 09:25:30;;;;;;;4.80;1.20;;;;;;;;;;5009791;28;20271;-64
2024/01/05 09:27:57;;;;;;;2.33;0.93;;;;;;;;;;5016929;28;20212;-62
2024/01/05 09:30:24;;;;;;;2.93;0.90;;;;;;;;;;5014571;28;20197;-61
2024/01/05 09:32:52;;;;;;;0.93;0.77;;;;;;;;;;5009837;28;20289;-63
2024/01/05 09:35:21;;;;;;;1.47;1.10;;;;;;;;;;5015096;28;20208;-62
2024/01/05 09:37:50;;;;;;;1.60;0.90;;;;;;;;;;5010986;28;20642;-61
2024/01/05 09:40:17;;;;;;;1.90;1.13;;;;;;;;;;5008241;28;20228;-61
2024/01/05 09:42:50;;;;;;;3.37;1.40;;;;;;;;;;5008823;28;20204;-61
2024/01/05 09:45:18;;;;;;;1.17;0.73;;;;;;;;;;5005429;28;20227;-62
2024/01/05 09:47:45;;;;;;;1.40;0.80;;;;;;;;;;5008934;28;20258;-61
2024/01/05 09:50:13;;;;;;;1.20;0.77;;;;;;;;;;5009219;28;20204;-62
2024/01/05 09:52:41;;;;;;;2.20;0.90;;;;;;;;;;5007666;28;20211;-62
2024/01/05 09:55:09;;;;;;;2.20;0.80;;;;;;;;;;5006666;28;20212;-61
2024/01/05 09:57:37;;;;;;;1.37;0.90;;;;;;;;;;5008307;28;20215;-61
2024/01/05 10:00:04;;;;;;;2.10;1.10;;;;;;;;;;5008249;28;20254;-62
2024/01/05 10:02:33;;;;;;;1.73;1.10;;;;;;;;;;5007584;28;20204;-61
2024/01/05 10:05:01;;;;;;;1.90;0.90;;;;;;;;;;5008600;28;20218;-62
2024/01/05 10:07:28;;;;;;;2.33;1.00;;;;;;;;;;5015784;28;20241;-61
2024/01/05 10:09:58;;;;;;;1.13;0.80;;;;;;;;;;5007661;28;20197;-61
2024/01/05 10:12:25;;;;;;;1.57;1.00;;;;;;;;;;5009008;28;20231;-61
2024/01/05 10:15:03;;;;;;;0.83;0.73;;;;;;;;;;5018547;28;20200;-62
2024/01/05 10:17:30;;;;;;;1.37;0.87;;;;;;;;;;5022704;28;20287;-62
2024/01/05 10:20:11;;;;;;;1.77;0.70;;;;;;;;;;5023977;28;20212;-62
2024/01/05 10:22:38;;;;;;;0.80;0.60;;;;;;;;;;5024020;28;20208;-62
2024/01/05 10:25:16;;;;;;;1.00;0.50;;;;;;;;;;5024133;28;20211;-63
2024/01/05 10:27:43;;;;;;;1.57;0.90;;;;;;;;;;5015578;28;20223;-63
2024/01/05 10:30:11;;;;;;;2.50;0.70;;;;;;;;;;5020329;28;20201;-62
2024/01/05 10:32:39;;;;;;;0.63;0.47;;;;;;;;;;5021576;28;20208;-62
2024/01/05 10:35:09;;;;;;;2.67;0.73;;;;;;;;;;5023305;28;20299;-62
2024/01/05 10:37:36;;;;;;;1.07;0.60;;;;;;;;;;5022443;28;20320;-61
2024/01/05 10:40:04;;;;;;;1.83;0.80;;;;;;;;;;5021157;28;20238;-62
2024/01/05 10:42:34;;;;;;;1.00;0.70;;;;;;;;;;5022556;28;20887;-61
2024/01/05 10:45:01;;;;;;;1.23;0.77;;;;;;;;;;5038888;28;20204;-62
2024/01/05 10:47:30;;;;;;;0.97;0.63;;;;;;;;;;5041615;28;20536;-61
2024/01/05 10:49:57;;;;;;;1.20;0.60;;;;;;;;;;5042966;28;20195;-61
2024/01/05 10:52:25;;;;;;;3.73;0.63;;;;;;;;;;5041111;28;20214;-62
2024/01/05 10:54:53;;;;;;;1.53;0.80;;;;;;;;;;5043572;28;20214;-62
2024/01/05 10:57:23;;;;;;;1.60;0.70;;;;;;;;;;5042670;28;20215;-62
2024/01/05 10:59:52;;;;;;;1.93;0.70;;;;;;;;;;5041393;28;20227;-63
2024/01/05 11:02:21;;;;;;;3.70;0.70;;;;;;;;;;5044727;28;20211;-61
2024/01/05 11:04:49;;;;;;;1.17;0.50;;;;;;;;;;5044010;28;20213;-62
2024/01/05 11:07:18;;;;;;;1.20;0.63;;;;;;;;;;5041817;28;20201;-62
2024/01/05 11:09:52;;;;;;;0.83;0.60;;;;;;;;;;5040799;28;20227;-63
2024/01/05 11:12:23;;;;;;;1.37;0.60;;;;;;;;;;5041487;28;20204;-62
2024/01/05 11:14:58;;;;;;;2.60;0.90;;;;;;;;;;5044264;28;20204;-61
2024/01/05 11:17:42;;;;;;;1.03;0.80;;;;;;;;;;5043536;28;20214;-61
2024/01/05 11:20:20;;;;;;;4.20;0.97;;;;;;;;;;5038449;28;20295;-62
2024/01/05 11:22:49;;;;;;;3.93;0.83;;;;;;;;;;5037134;28;20203;-62
2024/01/05 11:25:16;;;;;;;2.03;1.00;;;;;;;;;;5040875;28;20230;-61
2024/01/05 11:27:46;;;;;;;1.37;0.70;;;;;;;;;;5039414;28;20254;-62
2024/01/05 11:30:15;;;;;;;1.23;0.60;;;;;;;;;;5044892;28;20248;-61
2024/01/05 11:32:44;;;;;;;2.43;0.90;;;;;;;;;;5043853;28;20218;-61
2024/01/05 11:35:29;;;;;;;2.23;0.70;;;;;;;;;;5038999;28;20219;-62
2024/01/05 11:37:58;;;;;;;3.90;0.63;;;;;;;;;;5025788;28;20502;-61
2024/01/05 11:40:29;;;;;;;1.67;0.70;;;;;;;;;;5029952;28;20224;-62
2024/01/05 11:42:57;;;;;;;1.43;0.80;;;;;;;;;;5027052;28;20218;-61
2024/01/05 11:45:39;;;;;;;1.17;0.80;;;;;;;;;;5025476;28;20311;-62
2024/01/05 11:48:07;;;;;;;1.53;0.90;;;;;;;;;;5024425;28;20214;-62
2024/01/05 11:50:35;;;;;;;0.90;0.67;;;;;;;;;;5025594;28;20199;-61
2024/01/05 11:53:09;;;;;;;4.30;1.07;;;;;;;;;;5026241;28;20204;-63
2024/01/05 11:55:40;;;;;;;1.70;0.70;;;;;;;;;;5026079;28;20210;-67
2024/01/05 11:58:07;;;;;;;2.53;0.90;;;;;;;;;;5025304;28;20214;-66
2024/01/05 12:00:35;;;;;;;3.50;1.30;;;;;;;;;;5020203;28;20216;-65
2024/01/05 12:03:02;;;;;;;3.77;0.73;;;;;;;;;;5026073;28;20270;-67
2024/01/05 12:05:31;;;;;;;1.60;0.93;;;;;;;;;;5028060;28;20211;-66
2024/01/05 12:07:58;;;;;;;1.70;1.03;;;;;;;;;;5021777;28;23247;-66
2024/01/05 12:10:27;;;;;;;4.80;1.87;;;;;;;;;;5022445;28;20315;-66
2024/01/05 12:12:54;;;;;;;5.90;3.17;;;;;;;;;;5026741;28;20216;-66
2024/01/05 12:15:22;;;;;;;2.97;1.40;;;;;;;;;;5027770;28;20203;-67
2024/01/05 12:17:49;;;;;;;6.27;3.30;;;;;;;;;;5027505;28;20207;-65
2024/01/05 12:20:16;;;;;;;1.90;1.40;;;;;;;;;;5031232;28;20215;-66
2024/01/05 12:22:45;;;;;;;5.03;2.30;;;;;;;;;;5030899;28;20207;-66
2024/01/05 12:25:12;;;;;;;1.93;1.13;;;;;;;;;;5023988;28;20200;-66
2024/01/05 12:27:39;;;;;;;1.17;1.00;;;;;;;;;;5028883;28;20214;-66
2024/01/05 12:30:07;;;;;;;2.37;1.10;;;;;;;;;;5028730;28;20208;-66
2024/01/05 12:32:34;;;;;;;2.10;0.73;;;;;;;;;;5036510;28;20203;-67
2024/01/05 12:35:02;;;;;;;3.53;1.20;;;;;;;;;;5029791;28;20215;-66
2024/01/05 12:37:29;;;;;;;2.80;1.00;;;;;;;;;;5028219;28;20249;-66
2024/01/05 12:40:10;;;;;;;2.33;1.00;;;;;;;;;;5029229;28;20232;-65
2024/01/05 12:42:37;;;;;;;5.10;0.90;;;;;;;;;;5029846;28;20208;-66
2024/01/05 12:45:05;;;;;;;2.77;0.70;;;;;;;;;;5041174;28;20196;-66
2024/01/05 12:47:32;;;;;;;3.07;0.80;;;;;;;;;;5037716;28;20262;-66
2024/01/05 12:49:59;;;;;;;3.83;1.43;;;;;;;;;;5033548;28;20196;-67
2024/01/05 12:52:36;;;;;;;4.23;1.93;;;;;;;;;;5044983;28;20210;-66
2024/01/05 12:55:04;;;;;;;3.43;1.20;;;;;;;;;;5046732;28;20203;-65
2024/01/05 12:57:32;;;;;;;2.77;1.00;;;;;;;;;;5029081;28;20206;-66
2024/01/05 13:00:05;;;;;;;2.20;1.00;;;;;;;;;;5041574;28;20341;-67
2024/01/05 13:02:38;;;;;;;2.27;1.03;;;;;;;;;;5039096;28;20199;-67
2024/01/05 13:05:20;;;;;;;3.23;0.90;;;;;;;;;;5034750;28;20258;-62
2024/01/05 13:07:47;;;;;;;4.33;1.23;;;;;;;;;;5040983;28;20200;-62
2024/01/05 13:10:15;;;;;;;3.50;1.00;;;;;;;;;;5043912;28;20200;-62
2024/01/05 13:12:46;;;;;;;1.07;0.80;;;;;;;;;;5029105;28;20240;-62
2024/01/05 13:15:13;;;;;;;2.43;1.07;;;;;;;;;;5024948;28;20270;-63
2024/01/05 13:17:43;;;;;;;4.43;1.40;;;;;;;;;;5026381;28;20203;-62
2024/01/05 13:20:11;;;;;;;2.43;1.07;;;;;;;;;;5029410;28;20230;-62
2024/01/05 13:22:38;;;;;;;1.53;0.90;;;;;;;;;;5042831;28;20221;-61
2024/01/05 13:25:06;;;;;;;4.27;1.37;;;;;;;;;;5042616;28;20195;-62
2024/01/05 13:27:34;;;;;;;2.77;1.13;;;;;;;;;;5040313;28;20338;-62
2024/01/05 13:30:02;;;;;;;3.70;1.10;;;;;;;;;;5040475;28;20199;-62
2024/01/05 13:32:29;;;;;;;2.20;1.00;;;;;;;;;;5040927;28;20207;-62
2024/01/05 13:34:56;;;;;;;2.63;1.20;;;;;;;;;;5042184;28;20223;-62
2024/01/05 13:37:25;;;;;;;2.60;1.03;;;;;;;;;;5043604;28;20235;-62
2024/01/05 13:39:52;;;;;;;7.13;1.70;;;;;;;;;;5040887;28;20306;-62
2024/01/05 13:42:19;;;;;;;3.60;1.47;;;;;;;;;;5042233;28;20214;-62
2024/01/05 13:44:48;;;;;;;2.27;1.23;;;;;;;;;;5042507;28;20210;-62
2024/01/05 13:47:15;;;;;;;2.70;1.10;;;;;;;;;;5041304;28;20224;-61
2024/01/05 13:49:42;;;;;;;4.93;1.10;;;;;;;;;;5045077;28;20204;-62
2024/01/05 13:52:09;;;;;;;3.67;1.03;;;;;;;;;;5042237;28;20207;-62
2024/01/05 13:54:36;;;;;;;4.07;1.30;;;;;;;;;;5042024;28;20298;-61
2024/01/05 13:57:04;;;;;;;2.50;1.17;;;;;;;;;;5041762;28;20200;-61
2024/01/05 13:59:33;;;;;;;2.43;1.10;;;;;;;;;;5039832;28;20200;-62
2024/01/05 14:02:02;;;;;;;4.07;1.10;;;;;;;;;;5040743;28;20222;-62
2024/01/05 14:04:30;;;;;;;4.77;1.17;;;;;;;;;;5047862;28;20222;-62
2024/01/05 14:06:57;;;;;;;2.30;0.90;;;;;;;;;;5050660;28;20200;-62
2024/01/05 14:09:25;;;;;;;2.63;1.30;;;;;;;;;;5041088;28;20215;-62
2024/01/05 14:11:52;;;;;;;1.83;0.90;;;;;;;;;;5041518;28;20211;-62
2024/01/05 14:14:19;;;;;;;3.57;1.50;;;;;;;;;;5042524;28;20214;-66
2024/01/05 14:16:46;;;;;;;4.37;1.80;;;;;;;;;;5042149;28;20204;-66
2024/01/05 14:19:14;;;;;;;7.93;2.70;;;;;;;;;;5043928;28;20201;-66
2024/01/05 14:21:41;;;;;;;5.20;2.50;;;;;;;;;;5046412;28;20203;-66
2024/01/05 14:24:09;;;;;;;3.93;1.53;;;;;;;;;;5039759;28;20207;-66
2024/01/05 14:26:37;;;;;;;5.77;2.97;;;;;;;;;;5040562;28;20207;-67
2024/01/05 14:29:05;;;;;;;3.00;1.73;;;;;;;;;;5042584;28;20202;-66
2024/01/05 14:31:33;;;;;;;5.33;2.63;;;;;;;;;;5043981;28;20257;-66
2024/01/05 14:34:01;;;;;;;2.77;1.10;;;;;;;;;;5040313;28;20196;-66
2024/01/05 14:36:29;;;;;;;2.63;1.00;;;;;;;;;;5040190;28;20235;-66
2024/01/05 14:38:56;;;;;;;4.27;1.00;;;;;;;;;;5041779;28;20299;-66
2024/01/05 14:41:24;;;;;;;2.70;1.00;;;;;;;;;;5044609;28;20224;-66
2024/01/05 14:43:51;;;;;;;2.67;1.10;;;;;;;;;;5037430;28;20214;-66
2024/01/05 14:46:18;;;;;;;3.13;1.10;;;;;;;;;;5039438;28;20196;-67
2024/01/05 14:48:46;;;;;;;3.80;1.17;;;;;;;;;;5039852;28;20226;-67